sensor_id;sensor_type;location;lat;lon;timestamp;P1;durP1;ratioP1;P2;durP2;ratioP2
76377;SDS011;65200;49.500;8.654;2023-07-22T00:01:15;4.95;;;3.00;;
76377;SDS011;65200;49.500;8.654;2023-07-22T00:03:42;3.65;;;2.67;;
76377;SDS011;65200;49.500;8.654;2023-07-22T00:06:09;2.65;;;2.30;;
76377;SDS011;65200;49.500;8.654;2023-07-22T00:08:36;4.28;;;3.53;;
76377;SDS011;65200;49.500;8.654;2023-07-22T00:11:04;4.25;;;3.03;;
76377;SDS011;65200;49.500;8.654;2023-07-22T00:13:31;3.75;;;3.10;;
76377;SDS011;65200;49.500;8.654;2023-07-22T00:16:00;4.38;;;2.55;;
76377;SDS011;65200;49.500;8.654;2023-07-22T00:18:29;3.65;;;3.33;;
76377;SDS011;65200;49.500;8.654;2023-07-22T00:20:56;4.13;;;3.47;;
76377;SDS011;65200;49.500;8.654;2023-07-22T00:23:23;3.45;;;3.15;;
76377;SDS011;65200;49.500;8.654;2023-07-22T00:25:49;4.15;;;3.10;;
76377;SDS011;65200;49.500;8.654;2023-07-22T00:28:16;4.72;;;2.90;;
76377;SDS011;65200;49.500;8.654;2023-07-22T00:30:43;3.65;;;3.35;;
76377;SDS011;65200;49.500;8.654;2023-07-22T00:33:11;4.13;;;3.20;;
76377;SDS011;65200;49.500;8.654;2023-07-22T00:35:39;4.05;;;3.45;;
76377;SDS011;65200;49.500;8.654;2023-07-22T00:38:05;7.07;;;3.30;;
76377;SDS011;65200;49.500;8.654;2023-07-22T00:40:32;3.60;;;3.30;;
76377;SDS011;65200;49.500;8.654;2023-07-22T00:42:58;3.83;;;3.42;;
76377;SDS011;65200;49.500;8.654;2023-07-22T00:45:25;3.58;;;3.28;;
76377;SDS011;65200;49.500;8.654;2023-07-22T00:47:51;3.50;;;2.63;;
76377;SDS011;65200;49.500;8.654;2023-07-22T00:50:19;4.03;;;3.67;;
76377;SDS011;65200;49.500;8.654;2023-07-22T00:52:47;3.55;;;3.25;;
76377;SDS011;65200;49.500;8.654;2023-07-22T00:55:14;4.70;;;3.38;;
76377;SDS011;65200;49.500;8.654;2023-07-22T00:57:40;3.15;;;2.70;;
76377;SDS011;65200;49.500;8.654;2023-07-22T01:00:07;3.47;;;2.97;;
76377;SDS011;65200;49.500;8.654;2023-07-22T01:02:36;3.55;;;2.67;;
76377;SDS011;65200;49.500;8.654;2023-07-22T01:05:03;3.67;;;3.33;;
76377;SDS011;65200;49.500;8.654;2023-07-22T01:07:31;3.63;;;2.85;;
76377;SDS011;65200;49.500;8.654;2023-07-22T01:09:58;3.92;;;3.53;;
76377;SDS011;65200;49.500;8.654;2023-07-22T01:12:25;4.40;;;3.42;;
76377;SDS011;65200;49.500;8.654;2023-07-22T01:14:51;3.17;;;2.85;;
76377;SDS011;65200;49.500;8.654;2023-07-22T01:17:18;4.63;;;3.65;;
76377;SDS011;65200;49.500;8.654;2023-07-22T01:19:45;4.20;;;3.05;;
76377;SDS011;65200;49.500;8.654;2023-07-22T01:24:41;6.97;;;3.42;;
76377;SDS011;65200;49.500;8.654;2023-07-22T01:27:08;5.63;;;3.45;;
76377;SDS011;65200;49.500;8.654;2023-07-22T01:29:35;4.72;;;3.45;;
76377;SDS011;65200;49.500;8.654;2023-07-22T01:32:02;3.47;;;3.17;;
76377;SDS011;65200;49.500;8.654;2023-07-22T01:34:30;4.88;;;3.08;;
76377;SDS011;65200;49.500;8.654;2023-07-22T01:36:57;3.78;;;3.47;;
76377;SDS011;65200;49.500;8.654;2023-07-22T01:39:25;4.22;;;3.83;;
76377;SDS011;65200;49.500;8.654;2023-07-22T01:41:53;4.65;;;3.30;;
76377;SDS011;65200;49.500;8.654;2023-07-22T01:44:20;5.07;;;3.47;;
76377;SDS011;65200;49.500;8.654;2023-07-22T01:46:46;5.45;;;3.78;;
76377;SDS011;65200;49.500;8.654;2023-07-22T01:49:13;5.50;;;3.47;;
76377;SDS011;65200;49.500;8.654;2023-07-22T01:51:39;4.28;;;3.83;;
76377;SDS011;65200;49.500;8.654;2023-07-22T01:54:06;4.03;;;3.55;;
76377;SDS011;65200;49.500;8.654;2023-07-22T01:59:02;3.35;;;3.05;;
76377;SDS011;65200;49.500;8.654;2023-07-22T02:01:28;3.75;;;3.17;;
76377;SDS011;65200;49.500;8.654;2023-07-22T02:03:55;5.80;;;3.40;;
76377;SDS011;65200;49.500;8.654;2023-07-22T02:06:21;3.42;;;2.58;;
76377;SDS011;65200;49.500;8.654;2023-07-22T02:08:48;3.30;;;3.00;;
76377;SDS011;65200;49.500;8.654;2023-07-22T02:11:14;3.75;;;3.38;;
76377;SDS011;65200;49.500;8.654;2023-07-22T02:13:42;4.63;;;3.60;;
76377;SDS011;65200;49.500;8.654;2023-07-22T02:16:10;3.72;;;3.42;;
76377;SDS011;65200;49.500;8.654;2023-07-22T02:18:37;3.80;;;3.40;;
76377;SDS011;65200;49.500;8.654;2023-07-22T02:21:04;3.35;;;3.05;;
76377;SDS011;65200;49.500;8.654;2023-07-22T02:23:30;4.60;;;3.60;;
76377;SDS011;65200;49.500;8.654;2023-07-22T02:25:56;4.05;;;3.22;;
76377;SDS011;65200;49.500;8.654;2023-07-22T02:28:23;3.83;;;3.35;;
76377;SDS011;65200;49.500;8.654;2023-07-22T02:30:50;4.07;;;3.03;;
76377;SDS011;65200;49.500;8.654;2023-07-22T02:33:19;4.65;;;4.22;;
76377;SDS011;65200;49.500;8.654;2023-07-22T02:35:46;3.47;;;2.65;;
76377;SDS011;65200;49.500;8.654;2023-07-22T02:38:13;4.13;;;3.00;;
76377;SDS011;65200;49.500;8.654;2023-07-22T02:40:40;5.32;;;3.67;;
76377;SDS011;65200;49.500;8.654;2023-07-22T02:43:07;4.13;;;3.72;;
76377;SDS011;65200;49.500;8.654;2023-07-22T02:45:33;4.15;;;3.75;;
76377;SDS011;65200;49.500;8.654;2023-07-22T02:48:00;4.80;;;3.60;;
76377;SDS011;65200;49.500;8.654;2023-07-22T02:50:28;4.25;;;3.80;;
76377;SDS011;65200;49.500;8.654;2023-07-22T02:52:54;3.60;;;3.20;;
76377;SDS011;65200;49.500;8.654;2023-07-22T02:55:21;4.93;;;4.30;;
76377;SDS011;65200;49.500;8.654;2023-07-22T02:57:48;4.72;;;4.13;;
76377;SDS011;65200;49.500;8.654;2023-07-22T03:00:15;5.78;;;4.28;;
76377;SDS011;65200;49.500;8.654;2023-07-22T03:02:48;4.45;;;4.05;;
76377;SDS011;65200;49.500;8.654;2023-07-22T03:05:15;4.63;;;4.18;;
76377;SDS011;65200;49.500;8.654;2023-07-22T03:07:43;4.63;;;4.22;;
76377;SDS011;65200;49.500;8.654;2023-07-22T03:12:36;7.00;;;4.40;;
76377;SDS011;65200;49.500;8.654;2023-07-22T03:15:03;5.00;;;4.50;;
76377;SDS011;65200;49.500;8.654;2023-07-22T03:17:33;5.10;;;4.60;;
76377;SDS011;65200;49.500;8.654;2023-07-22T03:19:59;7.90;;;5.43;;
76377;SDS011;65200;49.500;8.654;2023-07-22T03:22:26;5.88;;;4.80;;
76377;SDS011;65200;49.500;8.654;2023-07-22T03:24:54;8.05;;;5.25;;
76377;SDS011;65200;49.500;8.654;2023-07-22T03:29:46;5.53;;;4.63;;
76377;SDS011;65200;49.500;8.654;2023-07-22T03:32:13;6.13;;;4.97;;
76377;SDS011;65200;49.500;8.654;2023-07-22T03:34:39;6.85;;;5.55;;
76377;SDS011;65200;49.500;8.654;2023-07-22T03:37:06;4.85;;;4.35;;
76377;SDS011;65200;49.500;8.654;2023-07-22T03:39:34;5.90;;;5.40;;
76377;SDS011;65200;49.500;8.654;2023-07-22T03:42:02;5.93;;;4.75;;
76377;SDS011;65200;49.500;8.654;2023-07-22T03:44:29;5.97;;;5.38;;
76377;SDS011;65200;49.500;8.654;2023-07-22T03:46:55;5.65;;;5.07;;
76377;SDS011;65200;49.500;8.654;2023-07-22T03:49:22;6.03;;;5.38;;
76377;SDS011;65200;49.500;8.654;2023-07-22T03:51:49;8.05;;;5.53;;
76377;SDS011;65200;49.500;8.654;2023-07-22T03:54:15;6.55;;;5.70;;
76377;SDS011;65200;49.500;8.654;2023-07-22T03:56:41;7.03;;;5.22;;
76377;SDS011;65200;49.500;8.654;2023-07-22T03:59:09;7.60;;;5.38;;
76377;SDS011;65200;49.500;8.654;2023-07-22T04:04:02;6.40;;;5.10;;
76377;SDS011;65200;49.500;8.654;2023-07-22T04:06:28;6.07;;;5.32;;
76377;SDS011;65200;49.500;8.654;2023-07-22T04:08:55;6.75;;;5.55;;
76377;SDS011;65200;49.500;8.654;2023-07-22T04:11:21;5.40;;;4.82;;
76377;SDS011;65200;49.500;8.654;2023-07-22T04:13:48;6.63;;;5.40;;
76377;SDS011;65200;49.500;8.654;2023-07-22T04:16:16;6.22;;;5.55;;
76377;SDS011;65200;49.500;8.654;2023-07-22T04:21:08;7.15;;;5.45;;
76377;SDS011;65200;49.500;8.654;2023-07-22T04:23:35;6.20;;;5.38;;
76377;SDS011;65200;49.500;8.654;2023-07-22T04:26:02;6.03;;;5.25;;
76377;SDS011;65200;49.500;8.654;2023-07-22T04:28:32;7.68;;;4.78;;
76377;SDS011;65200;49.500;8.654;2023-07-22T04:30:59;5.80;;;5.20;;
76377;SDS011;65200;49.500;8.654;2023-07-22T04:33:26;5.80;;;5.20;;
76377;SDS011;65200;49.500;8.654;2023-07-22T04:35:54;6.55;;;4.95;;
76377;SDS011;65200;49.500;8.654;2023-07-22T04:38:21;6.55;;;5.38;;
76377;SDS011;65200;49.500;8.654;2023-07-22T04:40:48;5.93;;;5.40;;
76377;SDS011;65200;49.500;8.654;2023-07-22T04:43:14;6.97;;;4.47;;
76377;SDS011;65200;49.500;8.654;2023-07-22T04:45:43;5.97;;;5.38;;
76377;SDS011;65200;49.500;8.654;2023-07-22T04:48:10;7.43;;;5.22;;
76377;SDS011;65200;49.500;8.654;2023-07-22T04:50:38;8.57;;;5.32;;
76377;SDS011;65200;49.500;8.654;2023-07-22T04:53:05;4.97;;;4.43;;
76377;SDS011;65200;49.500;8.654;2023-07-22T04:55:33;5.90;;;4.22;;
76377;SDS011;65200;49.500;8.654;2023-07-22T04:57:59;6.45;;;4.78;;
76377;SDS011;65200;49.500;8.654;2023-07-22T05:00:25;6.07;;;5.25;;
76377;SDS011;65200;49.500;8.654;2023-07-22T05:02:54;6.25;;;4.85;;
76377;SDS011;65200;49.500;8.654;2023-07-22T05:05:21;5.60;;;5.10;;
76377;SDS011;65200;49.500;8.654;2023-07-22T05:07:49;5.78;;;5.18;;
76377;SDS011;65200;49.500;8.654;2023-07-22T05:10:15;5.78;;;4.65;;
76377;SDS011;65200;49.500;8.654;2023-07-22T05:12:42;6.70;;;5.32;;
76377;SDS011;65200;49.500;8.654;2023-07-22T05:15:09;7.40;;;5.18;;
76377;SDS011;65200;49.500;8.654;2023-07-22T05:17:37;5.20;;;4.68;;
76377;SDS011;65200;49.500;8.654;2023-07-22T05:20:03;6.30;;;4.78;;
76377;SDS011;65200;49.500;8.654;2023-07-22T05:22:34;5.22;;;4.18;;
76377;SDS011;65200;49.500;8.654;2023-07-22T05:25:03;5.78;;;3.97;;
76377;SDS011;65200;49.500;8.654;2023-07-22T05:27:30;7.28;;;4.80;;
76377;SDS011;65200;49.500;8.654;2023-07-22T05:29:56;5.03;;;3.75;;
76377;SDS011;65200;49.500;8.654;2023-07-22T05:32:23;7.00;;;4.93;;
76377;SDS011;65200;49.500;8.654;2023-07-22T05:34:49;5.93;;;5.03;;
76377;SDS011;65200;49.500;8.654;2023-07-22T05:37:16;5.07;;;4.55;;
76377;SDS011;65200;49.500;8.654;2023-07-22T05:39:42;7.97;;;4.10;;
76377;SDS011;65200;49.500;8.654;2023-07-22T05:42:10;5.30;;;4.15;;
76377;SDS011;65200;49.500;8.654;2023-07-22T05:44:36;4.82;;;3.90;;
76377;SDS011;65200;49.500;8.654;2023-07-22T05:47:03;4.65;;;3.97;;
76377;SDS011;65200;49.500;8.654;2023-07-22T05:49:30;5.05;;;4.07;;
76377;SDS011;65200;49.500;8.654;2023-07-22T05:51:56;6.40;;;4.07;;
76377;SDS011;65200;49.500;8.654;2023-07-22T05:54:22;4.60;;;3.75;;
76377;SDS011;65200;49.500;8.654;2023-07-22T05:56:49;5.97;;;3.80;;
76377;SDS011;65200;49.500;8.654;2023-07-22T05:59:17;5.88;;;4.28;;
76377;SDS011;65200;49.500;8.654;2023-07-22T06:01:43;5.18;;;3.92;;
76377;SDS011;65200;49.500;8.654;2023-07-22T06:04:10;5.13;;;4.63;;
76377;SDS011;65200;49.500;8.654;2023-07-22T06:06:36;4.45;;;3.63;;
76377;SDS011;65200;49.500;8.654;2023-07-22T06:09:03;4.95;;;4.28;;
76377;SDS011;65200;49.500;8.654;2023-07-22T06:11:29;4.97;;;3.80;;
76377;SDS011;65200;49.500;8.654;2023-07-22T06:13:56;4.78;;;4.30;;
76377;SDS011;65200;49.500;8.654;2023-07-22T06:16:24;5.05;;;4.07;;
76377;SDS011;65200;49.500;8.654;2023-07-22T06:18:50;6.53;;;4.63;;
76377;SDS011;65200;49.500;8.654;2023-07-22T06:21:16;7.20;;;4.65;;
76377;SDS011;65200;49.500;8.654;2023-07-22T06:23:43;6.47;;;4.53;;
76377;SDS011;65200;49.500;8.654;2023-07-22T06:26:09;4.95;;;4.00;;
76377;SDS011;65200;49.500;8.654;2023-07-22T06:28:36;6.25;;;4.18;;
76377;SDS011;65200;49.500;8.654;2023-07-22T06:31:02;5.45;;;4.40;;
76377;SDS011;65200;49.500;8.654;2023-07-22T06:33:45;5.40;;;4.88;;
76377;SDS011;65200;49.500;8.654;2023-07-22T06:36:12;4.57;;;3.72;;
76377;SDS011;65200;49.500;8.654;2023-07-22T06:38:38;5.35;;;4.22;;
76377;SDS011;65200;49.500;8.654;2023-07-22T06:41:05;5.03;;;4.15;;
76377;SDS011;65200;49.500;8.654;2023-07-22T06:43:31;4.40;;;3.97;;
76377;SDS011;65200;49.500;8.654;2023-07-22T06:45:58;4.15;;;3.75;;
76377;SDS011;65200;49.500;8.654;2023-07-22T06:48:25;6.13;;;4.40;;
76377;SDS011;65200;49.500;8.654;2023-07-22T06:50:52;4.80;;;3.75;;
76377;SDS011;65200;49.500;8.654;2023-07-22T06:53:19;5.55;;;3.72;;
76377;SDS011;65200;49.500;8.654;2023-07-22T06:55:49;4.95;;;3.50;;
76377;SDS011;65200;49.500;8.654;2023-07-22T06:58:16;4.50;;;3.10;;
76377;SDS011;65200;49.500;8.654;2023-07-22T07:00:42;5.00;;;3.90;;
76377;SDS011;65200;49.500;8.654;2023-07-22T07:03:09;4.60;;;4.07;;
76377;SDS011;65200;49.500;8.654;2023-07-22T07:05:35;4.90;;;3.58;;
76377;SDS011;65200;49.500;8.654;2023-07-22T07:08:07;5.00;;;3.53;;
76377;SDS011;65200;49.500;8.654;2023-07-22T07:10:36;7.25;;;3.80;;
76377;SDS011;65200;49.500;8.654;2023-07-22T07:13:03;4.40;;;3.60;;
76377;SDS011;65200;49.500;8.654;2023-07-22T07:15:30;9.77;;;3.85;;
76377;SDS011;65200;49.500;8.654;2023-07-22T07:17:56;4.47;;;3.67;;
76377;SDS011;65200;49.500;8.654;2023-07-22T07:20:23;4.25;;;3.08;;
76377;SDS011;65200;49.500;8.654;2023-07-22T07:22:49;4.53;;;3.67;;
76377;SDS011;65200;49.500;8.654;2023-07-22T07:25:17;4.70;;;4.00;;
76377;SDS011;65200;49.500;8.654;2023-07-22T07:27:43;3.92;;;3.53;;
76377;SDS011;65200;49.500;8.654;2023-07-22T07:30:10;5.75;;;4.22;;
76377;SDS011;65200;49.500;8.654;2023-07-22T07:32:37;5.82;;;3.22;;
76377;SDS011;65200;49.500;8.654;2023-07-22T07:35:03;3.60;;;3.20;;
76377;SDS011;65200;49.500;8.654;2023-07-22T07:37:31;4.15;;;3.75;;
76377;SDS011;65200;49.500;8.654;2023-07-22T07:39:58;4.00;;;3.17;;
76377;SDS011;65200;49.500;8.654;2023-07-22T07:42:26;4.18;;;3.72;;
76377;SDS011;65200;49.500;8.654;2023-07-22T07:44:52;5.97;;;4.07;;
76377;SDS011;65200;49.500;8.654;2023-07-22T07:47:19;4.57;;;3.00;;
76377;SDS011;65200;49.500;8.654;2023-07-22T07:49:45;4.43;;;3.33;;
76377;SDS011;65200;49.500;8.654;2023-07-22T07:52:12;3.83;;;3.30;;
76377;SDS011;65200;49.500;8.654;2023-07-22T07:54:38;6.25;;;3.53;;
76377;SDS011;65200;49.500;8.654;2023-07-22T07:57:05;4.00;;;3.08;;
76377;SDS011;65200;49.500;8.654;2023-07-22T07:59:33;3.63;;;3.25;;
76377;SDS011;65200;49.500;8.654;2023-07-22T08:02:00;3.70;;;2.63;;
76377;SDS011;65200;49.500;8.654;2023-07-22T08:04:27;8.73;;;3.90;;
76377;SDS011;65200;49.500;8.654;2023-07-22T08:06:53;4.63;;;3.28;;
76377;SDS011;65200;49.500;8.654;2023-07-22T08:09:20;3.72;;;3.22;;
76377;SDS011;65200;49.500;8.654;2023-07-22T08:11:46;3.88;;;2.88;;
76377;SDS011;65200;49.500;8.654;2023-07-22T08:14:13;5.55;;;3.22;;
76377;SDS011;65200;49.500;8.654;2023-07-22T08:16:41;4.82;;;3.25;;
76377;SDS011;65200;49.500;8.654;2023-07-22T08:19:07;4.03;;;3.38;;
76377;SDS011;65200;49.500;8.654;2023-07-22T08:21:34;9.13;;;3.20;;
76377;SDS011;65200;49.500;8.654;2023-07-22T08:24:00;5.80;;;2.95;;
76377;SDS011;65200;49.500;8.654;2023-07-22T08:26:27;5.32;;;3.42;;
76377;SDS011;65200;49.500;8.654;2023-07-22T08:31:21;4.78;;;3.53;;
76377;SDS011;65200;49.500;8.654;2023-07-22T08:33:49;4.53;;;3.65;;
76377;SDS011;65200;49.500;8.654;2023-07-22T08:36:15;4.97;;;3.90;;
76377;SDS011;65200;49.500;8.654;2023-07-22T08:38:42;4.68;;;3.17;;
76377;SDS011;65200;49.500;8.654;2023-07-22T08:41:09;3.80;;;3.25;;
76377;SDS011;65200;49.500;8.654;2023-07-22T08:43:39;3.88;;;3.28;;
76377;SDS011;65200;49.500;8.654;2023-07-22T08:48:33;3.63;;;3.28;;
76377;SDS011;65200;49.500;8.654;2023-07-22T08:51:04;5.10;;;3.13;;
76377;SDS011;65200;49.500;8.654;2023-07-22T08:53:32;3.97;;;2.83;;
76377;SDS011;65200;49.500;8.654;2023-07-22T08:55:59;4.72;;;3.25;;
76377;SDS011;65200;49.500;8.654;2023-07-22T08:58:26;4.93;;;3.50;;
76377;SDS011;65200;49.500;8.654;2023-07-22T09:00:53;4.20;;;3.58;;
76377;SDS011;65200;49.500;8.654;2023-07-22T09:03:20;4.28;;;3.35;;
76377;SDS011;65200;49.500;8.654;2023-07-22T09:05:46;3.42;;;3.08;;
76377;SDS011;65200;49.500;8.654;2023-07-22T09:08:15;4.65;;;3.22;;
76377;SDS011;65200;49.500;8.654;2023-07-22T09:10:42;4.20;;;3.35;;
76377;SDS011;65200;49.500;8.654;2023-07-22T09:13:09;6.07;;;3.75;;
76377;SDS011;65200;49.500;8.654;2023-07-22T09:15:36;6.97;;;3.63;;
76377;SDS011;65200;49.500;8.654;2023-07-22T09:18:03;3.80;;;2.58;;
76377;SDS011;65200;49.500;8.654;2023-07-22T09:20:29;4.35;;;3.33;;
76377;SDS011;65200;49.500;8.654;2023-07-22T09:22:57;5.63;;;3.10;;
76377;SDS011;65200;49.500;8.654;2023-07-22T09:25:27;7.13;;;2.60;;
76377;SDS011;65200;49.500;8.654;2023-07-22T09:27:55;3.72;;;3.22;;
76377;SDS011;65200;49.500;8.654;2023-07-22T09:30:25;4.15;;;3.03;;
76377;SDS011;65200;49.500;8.654;2023-07-22T09:32:52;3.47;;;3.03;;
76377;SDS011;65200;49.500;8.654;2023-07-22T09:35:20;4.90;;;3.60;;
76377;SDS011;65200;49.500;8.654;2023-07-22T09:37:47;5.18;;;3.00;;
76377;SDS011;65200;49.500;8.654;2023-07-22T09:40:15;3.83;;;3.20;;
76377;SDS011;65200;49.500;8.654;2023-07-22T09:42:45;4.88;;;3.25;;
76377;SDS011;65200;49.500;8.654;2023-07-22T09:45:12;4.07;;;3.33;;
76377;SDS011;65200;49.500;8.654;2023-07-22T09:47:39;4.10;;;3.03;;
76377;SDS011;65200;49.500;8.654;2023-07-22T09:50:08;4.75;;;3.25;;
76377;SDS011;65200;49.500;8.654;2023-07-22T09:52:40;4.60;;;3.22;;
76377;SDS011;65200;49.500;8.654;2023-07-22T09:55:07;4.65;;;3.00;;
76377;SDS011;65200;49.500;8.654;2023-07-22T09:57:34;6.63;;;4.15;;
76377;SDS011;65200;49.500;8.654;2023-07-22T10:00:03;6.10;;;3.45;;
76377;SDS011;65200;49.500;8.654;2023-07-22T10:02:33;4.15;;;3.08;;
76377;SDS011;65200;49.500;8.654;2023-07-22T10:05:02;4.63;;;3.90;;
76377;SDS011;65200;49.500;8.654;2023-07-22T10:07:29;3.90;;;3.47;;
76377;SDS011;65200;49.500;8.654;2023-07-22T10:09:58;3.78;;;3.17;;
76377;SDS011;65200;49.500;8.654;2023-07-22T10:12:25;4.40;;;3.03;;
76377;SDS011;65200;49.500;8.654;2023-07-22T10:14:53;4.30;;;2.65;;
76377;SDS011;65200;49.500;8.654;2023-07-22T10:17:21;5.05;;;3.00;;
76377;SDS011;65200;49.500;8.654;2023-07-22T10:19:48;4.57;;;3.33;;
76377;SDS011;65200;49.500;8.654;2023-07-22T10:22:17;4.18;;;3.13;;
76377;SDS011;65200;49.500;8.654;2023-07-22T10:24:43;7.18;;;3.03;;
76377;SDS011;65200;49.500;8.654;2023-07-22T10:27:13;3.33;;;2.58;;
76377;SDS011;65200;49.500;8.654;2023-07-22T10:29:41;4.75;;;2.50;;
76377;SDS011;65200;49.500;8.654;2023-07-22T10:32:09;4.68;;;3.15;;
76377;SDS011;65200;49.500;8.654;2023-07-22T10:34:36;6.05;;;3.30;;
76377;SDS011;65200;49.500;8.654;2023-07-22T10:37:03;5.30;;;2.70;;
76377;SDS011;65200;49.500;8.654;2023-07-22T10:39:30;7.45;;;3.10;;
76377;SDS011;65200;49.500;8.654;2023-07-22T10:42:00;6.35;;;3.38;;
76377;SDS011;65200;49.500;8.654;2023-07-22T10:44:30;5.22;;;2.72;;
76377;SDS011;65200;49.500;8.654;2023-07-22T10:46:57;4.65;;;2.90;;
76377;SDS011;65200;49.500;8.654;2023-07-22T10:49:27;4.55;;;3.30;;
76377;SDS011;65200;49.500;8.654;2023-07-22T10:52:09;5.00;;;3.00;;
76377;SDS011;65200;49.500;8.654;2023-07-22T10:54:37;3.75;;;2.70;;
76377;SDS011;65200;49.500;8.654;2023-07-22T10:57:04;4.78;;;3.38;;
76377;SDS011;65200;49.500;8.654;2023-07-22T10:59:50;4.13;;;3.38;;
76377;SDS011;65200;49.500;8.654;2023-07-22T11:02:22;5.47;;;3.40;;
76377;SDS011;65200;49.500;8.654;2023-07-22T11:04:49;5.95;;;2.70;;
76377;SDS011;65200;49.500;8.654;2023-07-22T11:07:29;4.90;;;2.83;;
76377;SDS011;65200;49.500;8.654;2023-07-22T11:09:56;4.25;;;2.78;;
76377;SDS011;65200;49.500;8.654;2023-07-22T11:12:22;9.32;;;2.70;;
76377;SDS011;65200;49.500;8.654;2023-07-22T11:14:51;5.00;;;3.47;;
76377;SDS011;65200;49.500;8.654;2023-07-22T11:17:28;5.57;;;2.45;;
76377;SDS011;65200;49.500;8.654;2023-07-22T11:19:55;4.75;;;3.40;;
76377;SDS011;65200;49.500;8.654;2023-07-22T11:22:23;5.57;;;3.17;;
76377;SDS011;65200;49.500;8.654;2023-07-22T11:24:50;4.40;;;3.25;;
76377;SDS011;65200;49.500;8.654;2023-07-22T11:27:17;4.55;;;4.00;;
76377;SDS011;65200;49.500;8.654;2023-07-22T11:29:44;5.43;;;2.75;;
76377;SDS011;65200;49.500;8.654;2023-07-22T11:32:17;4.07;;;3.38;;
76377;SDS011;65200;49.500;8.654;2023-07-22T11:34:46;4.65;;;3.05;;
76377;SDS011;65200;49.500;8.654;2023-07-22T11:37:13;4.32;;;3.10;;
76377;SDS011;65200;49.500;8.654;2023-07-22T11:39:41;6.43;;;2.80;;
76377;SDS011;65200;49.500;8.654;2023-07-22T11:42:09;4.45;;;2.78;;
76377;SDS011;65200;49.500;8.654;2023-07-22T11:44:36;4.65;;;2.97;;
76377;SDS011;65200;49.500;8.654;2023-07-22T11:47:03;3.97;;;2.92;;
76377;SDS011;65200;49.500;8.654;2023-07-22T11:49:33;5.50;;;2.50;;
76377;SDS011;65200;49.500;8.654;2023-07-22T11:52:02;3.63;;;2.58;;
76377;SDS011;65200;49.500;8.654;2023-07-22T11:54:30;5.65;;;3.35;;
76377;SDS011;65200;49.500;8.654;2023-07-22T11:57:10;4.65;;;3.50;;
76377;SDS011;65200;49.500;8.654;2023-07-22T11:59:38;3.53;;;2.90;;
76377;SDS011;65200;49.500;8.654;2023-07-22T12:02:05;4.57;;;2.80;;
76377;SDS011;65200;49.500;8.654;2023-07-22T12:04:32;5.75;;;3.35;;
76377;SDS011;65200;49.500;8.654;2023-07-22T12:06:59;4.07;;;3.25;;
76377;SDS011;65200;49.500;8.654;2023-07-22T12:09:26;6.28;;;2.65;;
76377;SDS011;65200;49.500;8.654;2023-07-22T12:11:56;5.47;;;2.83;;
76377;SDS011;65200;49.500;8.654;2023-07-22T12:14:31;4.53;;;2.90;;
76377;SDS011;65200;49.500;8.654;2023-07-22T12:16:59;5.55;;;3.83;;
76377;SDS011;65200;49.500;8.654;2023-07-22T12:19:27;3.75;;;2.38;;
76377;SDS011;65200;49.500;8.654;2023-07-22T12:21:54;3.50;;;2.80;;
76377;SDS011;65200;49.500;8.654;2023-07-22T12:24:20;4.72;;;2.95;;
76377;SDS011;65200;49.500;8.654;2023-07-22T12:26:47;4.15;;;2.72;;
76377;SDS011;65200;49.500;8.654;2023-07-22T12:29:13;4.60;;;2.47;;
76377;SDS011;65200;49.500;8.654;2023-07-22T12:31:41;3.72;;;2.80;;
76377;SDS011;65200;49.500;8.654;2023-07-22T12:34:08;3.45;;;3.10;;
76377;SDS011;65200;49.500;8.654;2023-07-22T12:36:34;7.15;;;2.60;;
76377;SDS011;65200;49.500;8.654;2023-07-22T12:39:01;4.85;;;2.65;;
76377;SDS011;65200;49.500;8.654;2023-07-22T12:41:28;2.90;;;2.60;;
76377;SDS011;65200;49.500;8.654;2023-07-22T12:43:54;3.97;;;3.05;;
76377;SDS011;65200;49.500;8.654;2023-07-22T12:46:21;4.10;;;3.50;;
76377;SDS011;65200;49.500;8.654;2023-07-22T12:48:48;7.13;;;3.28;;
76377;SDS011;65200;49.500;8.654;2023-07-22T12:51:15;3.47;;;2.35;;
76377;SDS011;65200;49.500;8.654;2023-07-22T12:53:42;3.60;;;2.70;;
76377;SDS011;65200;49.500;8.654;2023-07-22T12:56:08;4.78;;;2.83;;
76377;SDS011;65200;49.500;8.654;2023-07-22T12:58:34;3.40;;;2.90;;
76377;SDS011;65200;49.500;8.654;2023-07-22T13:01:01;3.40;;;2.80;;
76377;SDS011;65200;49.500;8.654;2023-07-22T13:03:27;3.95;;;2.65;;
76377;SDS011;65200;49.500;8.654;2023-07-22T13:05:55;3.58;;;2.30;;
76377;SDS011;65200;49.500;8.654;2023-07-22T13:08:21;3.85;;;2.70;;
76377;SDS011;65200;49.500;8.654;2023-07-22T13:10:48;4.30;;;2.80;;
76377;SDS011;65200;49.500;8.654;2023-07-22T13:13:14;6.47;;;3.33;;
76377;SDS011;65200;49.500;8.654;2023-07-22T13:15:41;3.50;;;2.72;;
76377;SDS011;65200;49.500;8.654;2023-07-22T13:18:07;3.47;;;3.13;;
76377;SDS011;65200;49.500;8.654;2023-07-22T13:20:34;5.18;;;2.72;;
76377;SDS011;65200;49.500;8.654;2023-07-22T13:23:01;3.28;;;2.72;;
76377;SDS011;65200;49.500;8.654;2023-07-22T13:25:28;3.25;;;2.67;;
76377;SDS011;65200;49.500;8.654;2023-07-22T13:27:55;4.28;;;2.13;;
76377;SDS011;65200;49.500;8.654;2023-07-22T13:30:22;3.42;;;2.63;;
76377;SDS011;65200;49.500;8.654;2023-07-22T13:32:48;5.10;;;3.00;;
76377;SDS011;65200;49.500;8.654;2023-07-22T13:35:15;3.30;;;2.70;;
76377;SDS011;65200;49.500;8.654;2023-07-22T13:37:41;3.72;;;2.60;;
76377;SDS011;65200;49.500;8.654;2023-07-22T13:40:09;4.28;;;2.95;;
76377;SDS011;65200;49.500;8.654;2023-07-22T13:42:37;4.22;;;3.00;;
76377;SDS011;65200;49.500;8.654;2023-07-22T13:45:04;4.15;;;3.30;;
76377;SDS011;65200;49.500;8.654;2023-07-22T13:47:31;4.03;;;2.55;;
76377;SDS011;65200;49.500;8.654;2023-07-22T13:49:58;6.65;;;2.90;;
76377;SDS011;65200;49.500;8.654;2023-07-22T13:52:24;3.70;;;2.30;;
76377;SDS011;65200;49.500;8.654;2023-07-22T13:54:50;3.88;;;2.45;;
76377;SDS011;65200;49.500;8.654;2023-07-22T13:57:18;3.75;;;3.00;;
76377;SDS011;65200;49.500;8.654;2023-07-22T13:59:45;5.80;;;3.00;;
76377;SDS011;65200;49.500;8.654;2023-07-22T14:02:11;4.00;;;3.00;;
76377;SDS011;65200;49.500;8.654;2023-07-22T14:04:38;4.05;;;2.63;;
76377;SDS011;65200;49.500;8.654;2023-07-22T14:07:04;5.38;;;3.85;;
76377;SDS011;65200;49.500;8.654;2023-07-22T14:09:31;4.57;;;3.15;;
76377;SDS011;65200;49.500;8.654;2023-07-22T14:11:57;4.05;;;2.88;;
76377;SDS011;65200;49.500;8.654;2023-07-22T14:14:25;3.67;;;2.42;;
76377;SDS011;65200;49.500;8.654;2023-07-22T14:16:53;3.88;;;2.92;;
76377;SDS011;65200;49.500;8.654;2023-07-22T14:19:20;3.58;;;2.80;;
76377;SDS011;65200;49.500;8.654;2023-07-22T14:21:46;3.53;;;2.72;;
76377;SDS011;65200;49.500;8.654;2023-07-22T14:24:13;4.85;;;3.03;;
76377;SDS011;65200;49.500;8.654;2023-07-22T14:26:39;4.38;;;2.70;;
76377;SDS011;65200;49.500;8.654;2023-07-22T14:29:06;3.72;;;3.00;;
76377;SDS011;65200;49.500;8.654;2023-07-22T14:31:33;4.70;;;2.70;;
76377;SDS011;65200;49.500;8.654;2023-07-22T14:34:00;4.47;;;2.75;;
76377;SDS011;65200;49.500;8.654;2023-07-22T14:36:26;5.05;;;3.30;;
76377;SDS011;65200;49.500;8.654;2023-07-22T14:38:53;4.30;;;3.20;;
76377;SDS011;65200;49.500;8.654;2023-07-22T14:41:20;4.30;;;3.10;;
76377;SDS011;65200;49.500;8.654;2023-07-22T14:43:47;4.47;;;2.95;;
76377;SDS011;65200;49.500;8.654;2023-07-22T14:46:13;3.53;;;3.22;;
76377;SDS011;65200;49.500;8.654;2023-07-22T14:48:41;3.50;;;2.88;;
76377;SDS011;65200;49.500;8.654;2023-07-22T14:51:10;4.32;;;3.17;;
76377;SDS011;65200;49.500;8.654;2023-07-22T14:53:36;4.57;;;3.33;;
76377;SDS011;65200;49.500;8.654;2023-07-22T14:56:03;3.40;;;2.92;;
76377;SDS011;65200;49.500;8.654;2023-07-22T14:58:31;5.05;;;2.20;;
76377;SDS011;65200;49.500;8.654;2023-07-22T15:00:57;4.22;;;2.92;;
76377;SDS011;65200;49.500;8.654;2023-07-22T15:03:24;3.40;;;2.75;;
76377;SDS011;65200;49.500;8.654;2023-07-22T15:05:52;3.92;;;3.10;;
76377;SDS011;65200;49.500;8.654;2023-07-22T15:08:18;3.50;;;2.78;;